createdAt,value
2023-12-15T00:04:01.577Z,2.67
2023-12-15T00:09:04.378Z,3.40
2023-12-15T00:14:06.951Z,3.27
2023-12-15T00:19:09.617Z,2.40
2023-12-15T00:24:12.294Z,2.50
2023-12-15T00:29:14.943Z,3.73
2023-12-15T00:34:17.509Z,3.00
2023-12-15T00:39:20.009Z,3.07
2023-12-15T00:44:22.657Z,3.93
2023-12-15T00:49:26.034Z,2.63
2023-12-15T00:54:28.639Z,2.43
2023-12-15T00:59:31.286Z,2.70
2023-12-15T01:04:34.539Z,3.10
2023-12-15T01:09:38.048Z,2.33
2023-12-15T01:14:40.702Z,2.83
2023-12-15T01:19:43.218Z,3.80
2023-12-15T01:24:45.818Z,3.00
2023-12-15T01:29:48.423Z,3.00
2023-12-15T01:34:51.087Z,3.53
2023-12-15T01:39:53.683Z,3.90
2023-12-15T01:44:56.223Z,2.50
2023-12-15T01:49:59.370Z,3.30
2023-12-15T01:55:01.967Z,3.60
2023-12-15T02:00:08.550Z,2.53
2023-12-15T02:05:17.104Z,3.20
2023-12-15T02:10:20.004Z,2.70
2023-12-15T02:15:22.803Z,3.40
2023-12-15T02:20:25.443Z,2.73
2023-12-15T02:25:28.110Z,4.13
2023-12-15T02:30:30.719Z,2.70
2023-12-15T02:35:33.522Z,4.47
2023-12-15T02:40:39.846Z,2.93
2023-12-15T02:45:42.388Z,3.50
2023-12-15T02:50:44.928Z,3.40
2023-12-15T02:55:47.479Z,3.63
2023-12-15T03:00:50.135Z,4.27
2023-12-15T03:05:52.776Z,3.13
2023-12-15T03:10:59.628Z,3.33
2023-12-15T03:16:10.904Z,4.83
2023-12-15T03:21:13.639Z,3.03
2023-12-15T03:26:16.328Z,2.80
2023-12-15T03:31:18.886Z,4.33
2023-12-15T03:36:21.449Z,4.30
2023-12-15T03:41:24.075Z,5.30
2023-12-15T03:46:27.149Z,3.50
2023-12-15T03:51:29.813Z,3.00
2023-12-15T03:56:33.409Z,4.70
2023-12-15T04:01:36.220Z,4.33
2023-12-15T04:06:38.765Z,4.63
2023-12-15T04:11:41.329Z,4.10
2023-12-15T04:16:43.980Z,2.97
2023-12-15T04:21:46.485Z,3.67
2023-12-15T04:26:48.958Z,3.23
2023-12-15T04:31:51.469Z,4.70
2023-12-15T04:36:53.965Z,3.93
2023-12-15T04:41:56.409Z,2.77
2023-12-15T04:46:59.117Z,3.63
2023-12-15T04:52:01.721Z,4.03
2023-12-15T04:57:04.524Z,5.33
2023-12-15T05:02:07.762Z,5.23
2023-12-15T05:07:11.109Z,5.20
2023-12-15T05:12:13.677Z,3.33
2023-12-15T05:17:16.166Z,3.70
2023-12-15T05:22:18.717Z,3.50
2023-12-15T05:27:21.253Z,4.10
2023-12-15T05:32:24.270Z,4.00
2023-12-15T05:37:27.212Z,5.23
2023-12-15T05:42:29.685Z,3.50
2023-12-15T05:47:37.920Z,4.87
2023-12-15T05:52:40.832Z,4.17
2023-12-15T05:57:43.414Z,4.60
2023-12-15T06:02:46.367Z,3.97
2023-12-15T06:07:49.006Z,3.97
2023-12-15T06:12:51.615Z,3.07
2023-12-15T06:17:54.333Z,3.57
2023-12-15T06:22:58.765Z,4.97
2023-12-15T06:28:01.449Z,4.90
2023-12-15T06:33:06.727Z,4.07
2023-12-15T06:38:09.555Z,4.37
2023-12-15T06:43:12.097Z,4.37
2023-12-15T06:48:14.752Z,6.33
2023-12-15T06:53:19.060Z,3.93
2023-12-15T06:58:21.777Z,4.87
2023-12-15T07:03:24.406Z,4.50
2023-12-15T07:08:27.190Z,4.60
2023-12-15T07:13:29.740Z,4.93
2023-12-15T07:18:34.496Z,7.47
2023-12-15T07:23:37.297Z,5.77
2023-12-15T07:28:39.836Z,4.47
2023-12-15T07:33:42.610Z,4.70
2023-12-15T07:38:45.367Z,4.87
2023-12-15T07:43:47.863Z,4.93
2023-12-15T07:48:50.443Z,4.70
2023-12-15T07:53:52.993Z,4.87
2023-12-15T07:58:56.670Z,4.60
2023-12-15T08:03:59.226Z,4.27
2023-12-15T08:09:01.697Z,4.57
2023-12-15T08:14:04.872Z,6.13
2023-12-15T08:19:10.200Z,5.83
2023-12-15T08:24:12.821Z,4.73
2023-12-15T08:29:15.444Z,4.60
2023-12-15T08:34:18.287Z,5.40
2023-12-15T08:39:20.918Z,4.87
2023-12-15T08:44:29.381Z,4.93
2023-12-15T08:49:36.637Z,4.60
2023-12-15T08:54:39.136Z,4.60
2023-12-15T08:59:42.374Z,4.73
2023-12-15T09:04:55.568Z,6.07
2023-12-15T09:10:07.331Z,3.93
2023-12-15T09:15:10.016Z,4.67
2023-12-15T09:20:13.958Z,4.63
2023-12-15T09:25:16.532Z,4.63
2023-12-15T09:30:19.135Z,4.43
2023-12-15T09:35:21.606Z,4.10
2023-12-15T09:40:25.208Z,4.73
2023-12-15T09:45:27.727Z,4.67
2023-12-15T09:50:33.642Z,4.23
2023-12-15T09:55:36.892Z,5.33
2023-12-15T10:00:40.252Z,4.23
2023-12-15T10:05:43.607Z,4.47
2023-12-15T10:10:46.604Z,4.27
2023-12-15T10:15:52.658Z,4.40
2023-12-15T10:20:56.664Z,4.27
2023-12-15T10:26:05.765Z,5.13
2023-12-15T10:31:09.274Z,3.83
2023-12-15T10:36:14.399Z,4.40
2023-12-15T10:41:17.189Z,4.80
2023-12-15T10:46:22.259Z,4.77
2023-12-15T10:51:26.449Z,4.60
2023-12-15T10:56:29.119Z,5.13
2023-12-15T11:01:33.094Z,6.03
2023-12-15T11:06:35.648Z,5.77
2023-12-15T11:11:39.530Z,5.30
2023-12-15T11:16:43.389Z,4.70
2023-12-15T11:21:46.049Z,5.10
2023-12-15T11:26:50.465Z,6.10
2023-12-15T11:31:56.425Z,5.10
2023-12-15T11:36:59.001Z,5.73
2023-12-15T11:42:02.550Z,4.87
2023-12-15T11:47:05.701Z,4.60
2023-12-15T11:52:11.745Z,4.13
2023-12-15T11:57:14.440Z,5.00
2023-12-15T12:02:18.059Z,5.77
2023-12-15T12:07:22.058Z,4.00
2023-12-15T12:12:24.624Z,4.27
2023-12-15T12:17:27.444Z,6.00
2023-12-15T12:22:30.129Z,5.40
2023-12-15T12:27:34.753Z,4.10
2023-12-15T12:32:37.669Z,6.20
2023-12-15T12:37:40.874Z,4.73
2023-12-15T12:42:43.366Z,4.63
2023-12-15T12:47:50.084Z,4.47
2023-12-15T12:52:54.623Z,5.10
2023-12-15T12:57:58.007Z,4.93
2023-12-15T13:03:00.631Z,6.17
2023-12-15T13:08:03.542Z,4.73
2023-12-15T13:13:06.561Z,5.30
2023-12-15T13:18:11.858Z,5.17
2023-12-15T13:23:15.293Z,5.30
2023-12-15T13:28:17.934Z,6.23
2023-12-15T13:33:22.019Z,6.07
2023-12-15T13:38:24.713Z,5.40
2023-12-15T13:43:27.227Z,4.93
2023-12-15T13:48:29.862Z,5.67
2023-12-15T13:53:32.470Z,5.87
2023-12-15T13:58:35.386Z,6.77
2023-12-15T14:03:38.089Z,5.67
2023-12-15T14:08:41.419Z,5.83
2023-12-15T14:13:44.169Z,6.90
2023-12-15T14:18:47.130Z,8.57
2023-12-15T14:23:50.034Z,5.20
2023-12-15T14:28:53.223Z,5.40
2023-12-15T14:33:55.996Z,6.50
2023-12-15T14:38:58.823Z,4.63
2023-12-15T14:44:06.528Z,4.57
2023-12-15T14:49:09.401Z,3.67
2023-12-15T14:54:12.032Z,3.63
2023-12-15T14:59:14.533Z,4.13
2023-12-15T15:04:17.323Z,3.07
2023-12-15T15:09:20.296Z,4.00
2023-12-15T15:14:23.304Z,3.53
2023-12-15T15:19:27.882Z,4.73
2023-12-15T15:24:30.868Z,4.83
2023-12-15T15:29:33.528Z,3.40
2023-12-15T15:34:42.600Z,3.07
2023-12-15T15:39:50.883Z,3.93
2023-12-15T15:44:53.824Z,2.40
2023-12-15T15:49:57.730Z,2.77
2023-12-15T15:55:00.936Z,2.70
2023-12-15T16:00:05.191Z,2.40
2023-12-15T16:05:13.706Z,2.30
2023-12-15T16:10:16.653Z,3.07
2023-12-15T16:15:19.324Z,2.30
2023-12-15T16:20:24.240Z,3.27
2023-12-15T16:25:26.768Z,4.27
2023-12-15T16:30:29.345Z,3.20
2023-12-15T16:35:32.082Z,2.87
2023-12-15T16:40:34.746Z,3.83
2023-12-15T16:45:37.496Z,3.13
2023-12-15T16:50:40.110Z,3.77
2023-12-15T16:55:42.619Z,3.10
2023-12-15T17:00:45.321Z,4.07
2023-12-15T17:05:48.364Z,3.53
2023-12-15T17:10:51.054Z,3.47
2023-12-15T17:15:53.652Z,2.93
2023-12-15T17:20:56.384Z,3.33
2023-12-15T17:25:59.137Z,2.90
2023-12-15T17:31:02.234Z,5.13
2023-12-15T17:36:05.713Z,3.30
2023-12-15T17:41:08.533Z,4.13
2023-12-15T17:46:25.232Z,3.57
2023-12-15T17:51:27.970Z,4.67
2023-12-15T17:56:33.457Z,3.30
2023-12-15T18:01:36.270Z,3.33
2023-12-15T18:06:39.203Z,5.93
2023-12-15T18:11:41.803Z,2.93
2023-12-15T18:16:44.398Z,3.17
2023-12-15T18:21:47.038Z,3.60
2023-12-15T18:26:49.871Z,5.40
2023-12-15T18:31:52.631Z,3.00
2023-12-15T18:36:55.522Z,3.30
2023-12-15T18:41:58.215Z,2.57
2023-12-15T18:47:00.907Z,2.70
2023-12-15T18:52:04.087Z,3.57
2023-12-15T18:57:06.670Z,3.97
2023-12-15T19:02:10.097Z,3.47
2023-12-15T19:07:12.785Z,5.07
2023-12-15T19:12:15.385Z,3.40
2023-12-15T19:17:18.729Z,3.17
2023-12-15T19:22:21.508Z,3.20
2023-12-15T19:27:26.453Z,3.53
2023-12-15T19:32:37.601Z,4.70
2023-12-15T19:37:41.237Z,3.57
2023-12-15T19:42:44.702Z,3.17
2023-12-15T19:47:51.769Z,2.87
2023-12-15T19:52:55.238Z,2.77
2023-12-15T19:57:57.866Z,3.53
2023-12-15T20:03:00.721Z,3.27
2023-12-15T20:08:03.266Z,2.37
2023-12-15T20:13:05.932Z,2.67
2023-12-15T20:18:08.714Z,3.30
2023-12-15T20:23:11.372Z,3.27
2023-12-15T20:28:15.040Z,4.13
2023-12-15T20:33:17.736Z,2.97
2023-12-15T20:38:22.364Z,4.67
2023-12-15T20:43:25.668Z,4.53
2023-12-15T20:48:28.708Z,3.63
2023-12-15T20:53:31.295Z,3.03
2023-12-15T20:58:33.874Z,2.97
2023-12-15T21:03:37.751Z,3.67
2023-12-15T21:08:40.289Z,2.93
2023-12-15T21:13:43.038Z,2.97
2023-12-15T21:18:45.678Z,2.10
2023-12-15T21:23:48.301Z,2.90
2023-12-15T21:28:51.082Z,3.23
2023-12-15T21:33:53.796Z,2.10
2023-12-15T21:38:56.452Z,2.17
2023-12-15T21:43:58.992Z,3.00
2023-12-15T21:49:01.716Z,3.83
2023-12-15T21:54:07.681Z,2.90
2023-12-15T21:59:10.253Z,2.53
2023-12-15T22:04:13.197Z,2.47
2023-12-15T22:09:15.923Z,3.30
2023-12-15T22:14:23.748Z,2.77
2023-12-15T22:19:28.882Z,2.93
2023-12-15T22:24:31.584Z,2.17
2023-12-15T22:29:34.116Z,3.60
2023-12-15T22:34:36.884Z,3.30
2023-12-15T22:39:39.928Z,2.10
2023-12-15T22:44:42.449Z,2.90
2023-12-15T22:49:45.116Z,2.20
2023-12-15T22:54:50.838Z,3.23
2023-12-15T22:59:53.495Z,2.77
2023-12-15T23:04:56.107Z,3.50
2023-12-15T23:09:58.710Z,3.00
2023-12-15T23:15:07.370Z,2.83
2023-12-15T23:20:19.054Z,1.97
2023-12-15T23:25:21.760Z,2.43
2023-12-15T23:30:24.563Z,3.07
2023-12-15T23:35:27.077Z,2.40
2023-12-15T23:40:29.616Z,2.40
2023-12-15T23:45:32.370Z,1.80
2023-12-15T23:50:34.936Z,1.83
2023-12-15T23:55:40.459Z,3.03
